PWSweather.com
Personal Weather Stations
Station Observations
KJ4AJP
Beautiful Downtown Gardner, Martin, TN 38237

Beautiful Downtown GardnerMartin, TN 38237

Lat: 36.358, Lon: -88.8994

Elevation: 384.3

Station Type: TP1080WC

http://weather.mambm.com/

High Low Average
Temperature 39.6°F4.2°C 33.1°F0.6°C 36.2°F2.3°C
Dew Point 34.2°F1.2°C 29.9°F-1.2°C 32.3°F0.2°C
Winds 7.6 mph 12.2 kmh Calm Calm 2.0 mph E3.2 kmh E
Wind Gusts 13.6 mph21.9 kmh 2.2 mph3.5 kmh 8.0 mph12.9 kmh
Humidity 99% 78% 86%
Pressure 30.34 in1027.4 mb 30.07 in1018.3 mb -
Precipitation 0.44 in11.2 mm - -
Hour Temp Dew Point Humidity Winds Wind Gusts Pressure Precip Precip Rate Daily Precip Total
12:00 AM 36.0°F2.2°C 32.5°F0.3°C 87% Calm Calm 2.2 mph3.5 kmh 30.18 in1022.0 mb 0.00 in0.0 mm 0.00 in0.0 mm 0.00 in0.0 mm
12:15 AM 36.0°F2.2°C 32.5°F0.3°C 87% 0.7 mph NNW1.1 kmh NNW 3.8 mph6.1 kmh 30.18 in1022.0 mb 0.00 in0.0 mm 0.00 in0.0 mm 0.00 in0.0 mm
12:30 AM 36.0°F2.2°C 32.2°F0.1°C 86% 1.6 mph NNW2.6 kmh NNW 6.0 mph9.7 kmh 30.19 in1022.4 mb 0.00 in0.0 mm 0.00 in0.0 mm 0.00 in0.0 mm
12:45 AM 36.0°F2.2°C 32.2°F0.1°C 86% 0.7 mph NW1.1 kmh NW 3.8 mph6.1 kmh 30.19 in1022.4 mb 0.00 in0.0 mm 0.00 in0.0 mm 0.00 in0.0 mm
01:00 AM 35.8°F2.1°C 32.0°F0.0°C 86% 0.7 mph NNW1.1 kmh NNW 3.1 mph5.0 kmh 30.19 in1022.4 mb 0.00 in0.0 mm 0.00 in0.0 mm 0.00 in0.0 mm
01:15 AM 35.6°F2.0°C 31.8°F-0.1°C 86% Calm Calm 3.1 mph5.0 kmh 30.19 in1022.4 mb 0.00 in0.0 mm 0.00 in0.0 mm 0.00 in0.0 mm
01:30 AM 35.6°F2.0°C 32.1°F0.1°C 87% 1.6 mph NW2.6 kmh NW 3.8 mph6.1 kmh 30.20 in1022.7 mb 0.00 in0.0 mm 0.00 in0.0 mm 0.00 in0.0 mm
01:45 AM 35.4°F1.9°C 31.9°F-0.1°C 87% 1.6 mph NW2.6 kmh NW 3.8 mph6.1 kmh 30.21 in1023.0 mb 0.00 in0.0 mm 0.00 in0.0 mm 0.00 in0.0 mm
02:00 AM 35.2°F1.8°C 31.8°F-0.1°C 87% 4.5 mph N7.2 kmh N 7.6 mph12.2 kmh 30.21 in1023.0 mb 0.00 in0.0 mm 0.00 in0.0 mm 0.00 in0.0 mm
02:15 AM 34.9°F1.6°C 31.4°F-0.3°C 87% 7.6 mph N12.2 kmh N 9.8 mph15.8 kmh 30.20 in1022.7 mb 0.00 in0.0 mm 0.00 in0.0 mm 0.00 in0.0 mm
02:30 AM 34.7°F1.5°C 31.2°F-0.4°C 87% 0.7 mph N1.1 kmh N 7.6 mph12.2 kmh 30.21 in1023.0 mb 0.00 in0.0 mm 0.00 in0.0 mm 0.00 in0.0 mm
02:45 AM 34.7°F1.5°C 31.2°F-0.4°C 87% 3.1 mph N5.0 kmh N 8.3 mph13.4 kmh 30.21 in1023.0 mb 0.00 in0.0 mm 0.00 in0.0 mm 0.00 in0.0 mm
03:00 AM 34.9°F1.6°C 31.7°F-0.2°C 88% 2.2 mph N3.5 kmh N 5.4 mph8.7 kmh 30.22 in1023.4 mb 0.00 in0.0 mm 0.00 in0.0 mm 0.00 in0.0 mm
03:15 AM 34.7°F1.5°C 31.5°F-0.3°C 88% 3.8 mph N6.1 kmh N 6.0 mph9.7 kmh 30.22 in1023.4 mb 0.00 in0.0 mm 0.00 in0.0 mm 0.00 in0.0 mm
03:30 AM 34.7°F1.5°C 31.5°F-0.3°C 88% Calm Calm 6.0 mph9.7 kmh 30.22 in1023.4 mb 0.00 in0.0 mm 0.00 in0.0 mm 0.00 in0.0 mm
03:45 AM 34.7°F1.5°C 31.5°F-0.3°C 88% 0.7 mph N1.1 kmh N 4.5 mph7.2 kmh 30.22 in1023.4 mb 0.00 in0.0 mm 0.00 in0.0 mm 0.00 in0.0 mm
04:00 AM 34.7°F1.5°C 31.5°F-0.3°C 88% 1.6 mph N2.6 kmh N 5.4 mph8.7 kmh 30.24 in1024.0 mb 0.00 in0.0 mm 0.00 in0.0 mm 0.00 in0.0 mm
04:15 AM 34.7°F1.5°C 31.5°F-0.3°C 88% 1.6 mph N2.6 kmh N 5.4 mph8.7 kmh 30.24 in1024.0 mb 0.00 in0.0 mm 0.00 in0.0 mm 0.00 in0.0 mm
04:30 AM 34.9°F1.6°C 31.7°F-0.2°C 88% 2.2 mph N3.5 kmh N 6.9 mph11.1 kmh 30.25 in1024.4 mb 0.00 in0.0 mm 0.00 in0.0 mm 0.00 in0.0 mm
04:45 AM 34.9°F1.6°C 31.7°F-0.2°C 88% 3.8 mph NNE6.1 kmh NNE 9.2 mph14.8 kmh 30.24 in1024.0 mb 0.00 in0.0 mm 0.00 in0.0 mm 0.00 in0.0 mm
05:00 AM 34.9°F1.6°C 31.4°F-0.3°C 87% 5.4 mph N8.7 kmh N 9.2 mph14.8 kmh 30.24 in1024.0 mb 0.00 in0.0 mm 0.00 in0.0 mm 0.00 in0.0 mm
05:15 AM 34.9°F1.6°C 31.1°F-0.5°C 86% Calm Calm 7.6 mph12.2 kmh 30.25 in1024.4 mb 0.00 in0.0 mm 0.00 in0.0 mm 0.00 in0.0 mm
05:30 AM 34.9°F1.6°C 31.1°F-0.5°C 86% 3.1 mph N5.0 kmh N 6.9 mph11.1 kmh 30.25 in1024.4 mb 0.00 in0.0 mm 0.00 in0.0 mm 0.00 in0.0 mm
05:45 AM 34.7°F1.5°C 30.7°F-0.7°C 85% 2.2 mph N3.5 kmh N 9.2 mph14.8 kmh 30.26 in1024.7 mb 0.00 in0.0 mm 0.00 in0.0 mm 0.00 in0.0 mm
06:00 AM 34.7°F1.5°C 30.7°F-0.7°C 85% 3.1 mph N5.0 kmh N 9.2 mph14.8 kmh 30.27 in1025.1 mb 0.00 in0.0 mm 0.00 in0.0 mm 0.00 in0.0 mm
06:15 AM 34.5°F1.4°C 30.5°F-0.8°C 85% 3.8 mph NNE6.1 kmh NNE 9.2 mph14.8 kmh 30.28 in1025.4 mb 0.00 in0.0 mm 0.00 in0.0 mm 0.00 in0.0 mm
06:30 AM 34.5°F1.4°C 30.2°F-1.0°C 84% 0.7 mph NNE1.1 kmh NNE 6.0 mph9.7 kmh 30.29 in1025.7 mb 0.00 in0.0 mm 0.00 in0.0 mm 0.00 in0.0 mm
06:45 AM 34.5°F1.4°C 30.2°F-1.0°C 84% 1.6 mph N2.6 kmh N 9.2 mph14.8 kmh 30.28 in1025.4 mb 0.00 in0.0 mm 0.00 in0.0 mm 0.00 in0.0 mm
07:00 AM 34.5°F1.4°C 30.2°F-1.0°C 84% 3.8 mph N6.1 kmh N 8.3 mph13.4 kmh 30.30 in1026.1 mb 0.00 in0.0 mm 0.00 in0.0 mm 0.00 in0.0 mm
07:15 AM 34.5°F1.4°C 29.9°F-1.2°C 83% 3.1 mph NNE5.0 kmh NNE 9.8 mph15.8 kmh 30.30 in1026.1 mb 0.00 in0.0 mm 0.00 in0.0 mm 0.00 in0.0 mm
07:30 AM 34.5°F1.4°C 29.9°F-1.2°C 83% 2.2 mph N3.5 kmh N 7.6 mph12.2 kmh 30.31 in1026.4 mb 0.00 in0.0 mm 0.00 in0.0 mm 0.00 in0.0 mm
07:45 AM 34.7°F1.5°C 30.1°F-1.1°C 83% 1.6 mph NNE2.6 kmh NNE 6.0 mph9.7 kmh 30.31 in1026.4 mb 0.00 in0.0 mm 0.00 in0.0 mm 0.00 in0.0 mm
08:00 AM 34.9°F1.6°C 30.3°F-0.9°C 83% 1.6 mph NE2.6 kmh NE 8.3 mph13.4 kmh 30.32 in1026.8 mb 0.00 in0.0 mm 0.00 in0.0 mm 0.00 in0.0 mm
08:15 AM 34.9°F1.6°C 30.0°F-1.1°C 82% 3.8 mph NE6.1 kmh NE 9.8 mph15.8 kmh 30.33 in1027.1 mb 0.00 in0.0 mm 0.00 in0.0 mm 0.00 in0.0 mm
08:30 AM 35.1°F1.7°C 30.1°F-1.1°C 82% 2.2 mph NE3.5 kmh NE 4.5 mph7.2 kmh 30.33 in1027.1 mb 0.00 in0.0 mm 0.00 in0.0 mm 0.00 in0.0 mm
08:45 AM 35.2°F1.8°C 30.3°F-0.9°C 82% 0.7 mph NE1.1 kmh NE 6.0 mph9.7 kmh 30.34 in1027.4 mb 0.00 in0.0 mm 0.00 in0.0 mm 0.00 in0.0 mm
09:00 AM 35.6°F2.0°C 30.7°F-0.7°C 82% 1.6 mph NNE2.6 kmh NNE 9.2 mph14.8 kmh 30.34 in1027.4 mb 0.00 in0.0 mm 0.00 in0.0 mm 0.00 in0.0 mm
09:15 AM 35.8°F2.1°C 30.8°F-0.7°C 82% 3.1 mph NE5.0 kmh NE 8.3 mph13.4 kmh 30.33 in1027.1 mb 0.00 in0.0 mm 0.00 in0.0 mm 0.00 in0.0 mm
09:30 AM 36.0°F2.2°C 31.0°F-0.6°C 82% 4.5 mph NE7.2 kmh NE 9.2 mph14.8 kmh 30.32 in1026.8 mb 0.00 in0.0 mm 0.00 in0.0 mm 0.00 in0.0 mm
09:45 AM 36.1°F2.3°C 31.2°F-0.4°C 82% 3.1 mph NE5.0 kmh NE 9.2 mph14.8 kmh 30.33 in1027.1 mb 0.00 in0.0 mm 0.00 in0.0 mm 0.00 in0.0 mm
10:00 AM 36.7°F2.6°C 31.4°F-0.3°C 81% 3.1 mph NE5.0 kmh NE 11.4 mph18.3 kmh 30.33 in1027.1 mb 0.00 in0.0 mm 0.00 in0.0 mm 0.00 in0.0 mm
10:15 AM 36.9°F2.7°C 31.6°F-0.2°C 81% 2.2 mph NE3.5 kmh NE 8.3 mph13.4 kmh 30.34 in1027.4 mb 0.00 in0.0 mm 0.00 in0.0 mm 0.00 in0.0 mm
10:30 AM 37.4°F3.0°C 31.8°F-0.1°C 80% 3.1 mph NNE5.0 kmh NNE 9.2 mph14.8 kmh 30.33 in1027.1 mb 0.00 in0.0 mm 0.00 in0.0 mm 0.00 in0.0 mm
10:45 AM 37.6°F3.1°C 32.0°F0.0°C 80% 3.1 mph NNE5.0 kmh NNE 9.2 mph14.8 kmh 30.33 in1027.1 mb 0.00 in0.0 mm 0.00 in0.0 mm 0.00 in0.0 mm
11:00 AM 38.3°F3.5°C 32.7°F0.4°C 80% 3.1 mph N5.0 kmh N 9.8 mph15.8 kmh 30.32 in1026.8 mb 0.00 in0.0 mm 0.00 in0.0 mm 0.00 in0.0 mm
11:15 AM 38.3°F3.5°C 32.4°F0.2°C 79% 2.2 mph NNE3.5 kmh NNE 8.3 mph13.4 kmh 30.32 in1026.8 mb 0.00 in0.0 mm 0.00 in0.0 mm 0.00 in0.0 mm
11:30 AM 39.0°F3.9°C 33.4°F0.8°C 80% 3.8 mph NE6.1 kmh NE 6.9 mph11.1 kmh 30.30 in1026.1 mb 0.00 in0.0 mm 0.00 in0.0 mm 0.00 in0.0 mm
11:45 AM 39.2°F4.0°C 32.9°F0.5°C 78% 6.0 mph NE9.7 kmh NE 13.6 mph21.9 kmh 30.28 in1025.4 mb 0.00 in0.0 mm 0.00 in0.0 mm 0.00 in0.0 mm
12:00 PM 39.2°F4.0°C 33.2°F0.7°C 79% 3.8 mph ENE6.1 kmh ENE 10.7 mph17.2 kmh 30.27 in1025.1 mb 0.00 in0.0 mm 0.00 in0.0 mm 0.00 in0.0 mm
12:15 PM 39.6°F4.2°C 33.3°F0.7°C 78% 3.8 mph NE6.1 kmh NE 10.7 mph17.2 kmh 30.28 in1025.4 mb 0.00 in0.0 mm 0.00 in0.0 mm 0.00 in0.0 mm
12:30 PM 39.4°F4.1°C 33.1°F0.6°C 78% 3.1 mph NNE5.0 kmh NNE 10.7 mph17.2 kmh 30.27 in1025.1 mb 0.00 in0.0 mm 0.00 in0.0 mm 0.00 in0.0 mm
12:45 PM 39.4°F4.1°C 33.1°F0.6°C 78% 2.2 mph NE3.5 kmh NE 9.2 mph14.8 kmh 30.26 in1024.7 mb 0.00 in0.0 mm 0.00 in0.0 mm 0.00 in0.0 mm
01:00 PM 39.6°F4.2°C 33.3°F0.7°C 78% 5.4 mph NNE8.7 kmh NNE 8.3 mph13.4 kmh 30.26 in1024.7 mb 0.00 in0.0 mm 0.00 in0.0 mm 0.00 in0.0 mm
01:15 PM 39.4°F4.1°C 33.4°F0.8°C 79% 1.6 mph NNE2.6 kmh NNE 8.3 mph13.4 kmh 30.25 in1024.4 mb 0.00 in0.0 mm 0.00 in0.0 mm 0.00 in0.0 mm
01:30 PM 39.4°F4.1°C 33.4°F0.8°C 79% 3.1 mph NNE5.0 kmh NNE 7.6 mph12.2 kmh 30.26 in1024.7 mb 0.00 in0.0 mm 0.00 in0.0 mm 0.00 in0.0 mm
01:45 PM 39.2°F4.0°C 33.2°F0.7°C 79% 3.8 mph NE6.1 kmh NE 9.2 mph14.8 kmh 30.26 in1024.7 mb 0.00 in0.0 mm 0.00 in0.0 mm 0.00 in0.0 mm
02:00 PM 39.0°F3.9°C 33.4°F0.8°C 80% 1.6 mph NNE2.6 kmh NNE 8.3 mph13.4 kmh 30.25 in1024.4 mb 0.00 in0.0 mm 0.00 in0.0 mm 0.00 in0.0 mm
02:15 PM 39.0°F3.9°C 33.4°F0.8°C 80% 5.4 mph N8.7 kmh N 8.3 mph13.4 kmh 30.25 in1024.4 mb 0.00 in0.0 mm 0.00 in0.0 mm 0.00 in0.0 mm
02:30 PM 38.8°F3.8°C 33.5°F0.8°C 81% 2.2 mph NNE3.5 kmh NNE 6.0 mph9.7 kmh 30.25 in1024.4 mb 0.00 in0.0 mm 0.00 in0.0 mm 0.00 in0.0 mm
02:45 PM 38.7°F3.7°C 33.3°F0.7°C 81% 1.6 mph NNE2.6 kmh NNE 8.3 mph13.4 kmh 30.25 in1024.4 mb 0.00 in0.0 mm 0.00 in0.0 mm 0.00 in0.0 mm
03:00 PM 38.7°F3.7°C 33.7°F0.9°C 82% 2.2 mph NE3.5 kmh NE 8.3 mph13.4 kmh 30.25 in1024.4 mb 0.00 in0.0 mm 0.00 in0.0 mm 0.00 in0.0 mm
03:15 PM 38.7°F3.7°C 33.7°F0.9°C 82% 2.2 mph NE3.5 kmh NE 6.0 mph9.7 kmh 30.25 in1024.4 mb 0.00 in0.0 mm 0.00 in0.0 mm 0.00 in0.0 mm
03:30 PM 38.5°F3.6°C 33.8°F1.0°C 83% 2.2 mph NE3.5 kmh NE 9.2 mph14.8 kmh 30.24 in1024.0 mb 0.00 in0.0 mm 0.00 in0.0 mm 0.00 in0.0 mm
03:45 PM 38.1°F3.4°C 33.4°F0.8°C 83% 3.8 mph NNE6.1 kmh NNE 9.8 mph15.8 kmh 30.25 in1024.4 mb 0.00 in0.0 mm 0.00 in0.0 mm 0.00 in0.0 mm
04:00 PM 38.1°F3.4°C 33.7°F0.9°C 84% 2.2 mph NE3.5 kmh NE 6.0 mph9.7 kmh 30.23 in1023.7 mb 0.00 in0.0 mm 0.00 in0.0 mm 0.00 in0.0 mm
04:15 PM 37.9°F3.3°C 33.5°F0.8°C 84% 3.1 mph NNE5.0 kmh NNE 8.3 mph13.4 kmh 30.22 in1023.4 mb 0.00 in0.0 mm 0.00 in0.0 mm 0.00 in0.0 mm
04:30 PM 37.8°F3.2°C 33.4°F0.8°C 84% 5.4 mph NE8.7 kmh NE 9.8 mph15.8 kmh 30.22 in1023.4 mb 0.00 in0.0 mm 0.00 in0.0 mm 0.00 in0.0 mm
04:45 PM 37.6°F3.1°C 33.2°F0.7°C 84% 2.2 mph NE3.5 kmh NE 13.0 mph20.9 kmh 30.22 in1023.4 mb 0.00 in0.0 mm 0.00 in0.0 mm 0.00 in0.0 mm
05:00 PM 37.6°F3.1°C 33.2°F0.7°C 84% 1.6 mph NE2.6 kmh NE 6.0 mph9.7 kmh 30.21 in1023.0 mb 0.00 in0.0 mm 0.00 in0.0 mm 0.00 in0.0 mm
05:15 PM 37.4°F3.0°C 33.0°F0.6°C 84% 1.6 mph N2.6 kmh N 9.2 mph14.8 kmh 30.21 in1023.0 mb 0.00 in0.0 mm 0.00 in0.0 mm 0.00 in0.0 mm
05:30 PM 37.2°F2.9°C 32.8°F0.4°C 84% 3.1 mph ENE5.0 kmh ENE 12.1 mph19.5 kmh 30.19 in1022.4 mb 0.00 in0.0 mm 0.00 in0.0 mm 0.00 in0.0 mm
05:45 PM 37.2°F2.9°C 32.8°F0.4°C 84% 1.6 mph NE2.6 kmh NE 8.3 mph13.4 kmh 30.19 in1022.4 mb 0.00 in0.0 mm 0.00 in0.0 mm 0.00 in0.0 mm
06:00 PM 37.0°F2.8°C 33.0°F0.6°C 85% 0.7 mph NE1.1 kmh NE 7.6 mph12.2 kmh 30.20 in1022.7 mb 0.00 in0.0 mm 0.00 in0.0 mm 0.00 in0.0 mm
06:15 PM 37.0°F2.8°C 33.0°F0.6°C 85% 1.6 mph NE2.6 kmh NE 6.9 mph11.1 kmh 30.19 in1022.4 mb 0.00 in0.0 mm 0.00 in0.0 mm 0.00 in0.0 mm
06:30 PM 37.0°F2.8°C 33.3°F0.7°C 86% 1.6 mph NE2.6 kmh NE 6.9 mph11.1 kmh 30.18 in1022.0 mb 0.00 in0.0 mm 0.00 in0.0 mm 0.00 in0.0 mm
06:45 PM 36.5°F2.5°C 33.3°F0.7°C 88% 1.6 mph NE2.6 kmh NE 7.6 mph12.2 kmh 30.17 in1021.7 mb 0.00 in0.0 mm 0.00 in0.0 mm 0.00 in0.0 mm
07:00 PM 36.5°F2.5°C 33.3°F0.7°C 88% 5.4 mph ENE8.7 kmh ENE 9.2 mph14.8 kmh 30.16 in1021.3 mb 0.00 in0.0 mm 0.00 in0.0 mm 0.00 in0.0 mm
07:15 PM 36.5°F2.5°C 33.3°F0.7°C 88% 3.1 mph NE5.0 kmh NE 8.3 mph13.4 kmh 30.15 in1021.0 mb 0.00 in0.0 mm 0.00 in0.0 mm 0.00 in0.0 mm
07:30 PM 36.5°F2.5°C 33.3°F0.7°C 88% 0.7 mph NE1.1 kmh NE 8.3 mph13.4 kmh 30.15 in1021.0 mb 0.00 in0.0 mm 0.00 in0.0 mm 0.00 in0.0 mm
07:45 PM 36.5°F2.5°C 33.6°F0.9°C 89% 2.2 mph NNE3.5 kmh NNE 5.4 mph8.7 kmh 30.14 in1020.7 mb 0.05 in1.3 mm 0.20 in5.1 mm 0.05 in1.3 mm
08:00 PM 35.8°F2.1°C 33.4°F0.8°C 91% 0.7 mph E1.1 kmh E 4.5 mph7.2 kmh 30.13 in1020.3 mb 0.09 in2.3 mm 0.05 in1.3 mm 0.09 in2.3 mm
08:15 PM 35.4°F1.9°C 33.6°F0.9°C 93% Calm Calm 3.8 mph6.1 kmh 30.13 in1020.3 mb 0.12 in3.0 mm 0.12 in3.0 mm 0.12 in3.0 mm
08:30 PM 35.2°F1.8°C 34.0°F1.1°C 95% 2.2 mph N3.5 kmh N 4.5 mph7.2 kmh 30.14 in1020.7 mb 0.12 in3.0 mm 0.00 in0.0 mm 0.12 in3.0 mm
08:45 PM 34.9°F1.6°C 33.9°F1.1°C 96% 0.7 mph N1.1 kmh N 4.5 mph7.2 kmh 30.14 in1020.7 mb 0.12 in3.0 mm 0.00 in0.0 mm 0.17 in4.3 mm
09:00 PM 34.7°F1.5°C 34.2°F1.2°C 98% 0.7 mph N1.1 kmh N 8.3 mph13.4 kmh 30.15 in1021.0 mb 0.17 in4.3 mm 0.07 in1.8 mm 0.26 in6.6 mm
09:15 PM 34.3°F1.3°C 34.1°F1.2°C 99% 3.1 mph N5.0 kmh N 7.6 mph12.2 kmh 30.13 in1020.3 mb 0.18 in4.6 mm 0.04 in1.0 mm 0.30 in7.6 mm
09:30 PM 34.2°F1.2°C 33.9°F1.1°C 99% 1.6 mph NW2.6 kmh NW 6.0 mph9.7 kmh 30.16 in1021.3 mb 0.20 in5.1 mm 0.08 in2.0 mm 0.32 in8.1 mm
09:45 PM 33.8°F1.0°C 33.6°F0.9°C 99% 3.1 mph NE5.0 kmh NE 6.0 mph9.7 kmh 30.12 in1020.0 mb 0.22 in5.6 mm 0.08 in2.0 mm 0.40 in10.2 mm
10:00 PM 33.6°F0.9°C 33.4°F0.8°C 99% 3.8 mph N6.1 kmh N 6.0 mph9.7 kmh 30.12 in1020.0 mb 0.17 in4.3 mm 0.00 in0.0 mm 0.43 in10.9 mm
10:15 PM 33.4°F0.8°C 33.2°F0.7°C 99% 2.2 mph N3.5 kmh N 9.2 mph14.8 kmh 30.11 in1019.6 mb 0.14 in3.6 mm 0.00 in0.0 mm 0.44 in11.2 mm
10:30 PM 33.4°F0.8°C 33.2°F0.7°C 99% 3.1 mph NNE5.0 kmh NNE 7.6 mph12.2 kmh 30.09 in1019.0 mb 0.11 in2.8 mm 0.00 in0.0 mm 0.44 in11.2 mm
10:45 PM 33.3°F0.7°C 33.0°F0.6°C 99% 3.1 mph N5.0 kmh N 11.4 mph18.3 kmh 30.10 in1019.3 mb 0.04 in1.0 mm 0.00 in0.0 mm 0.44 in11.2 mm
11:00 PM 33.3°F0.7°C 33.0°F0.6°C 99% 3.1 mph N5.0 kmh N 6.9 mph11.1 kmh 30.09 in1019.0 mb 0.01 in0.3 mm 0.00 in0.0 mm 0.44 in11.2 mm
11:15 PM 33.3°F0.7°C 33.0°F0.6°C 99% 1.6 mph N2.6 kmh N 5.4 mph8.7 kmh 30.09 in1019.0 mb 0.00 in0.0 mm 0.00 in0.0 mm 0.44 in11.2 mm
11:30 PM 33.3°F0.7°C 33.0°F0.6°C 99% 3.1 mph N5.0 kmh N 6.9 mph11.1 kmh 30.07 in1018.3 mb 0.00 in0.0 mm 0.00 in0.0 mm 0.44 in11.2 mm
11:45 PM 33.1°F0.6°C 32.8°F0.4°C 99% 1.6 mph NNW2.6 kmh NNW 8.3 mph13.4 kmh 30.08 in1018.6 mb 0.00 in0.0 mm 0.00 in0.0 mm 0.44 in11.2 mm